createdAt,value
2017-05-10T04:44:10.794Z,45
2017-05-10T04:44:36.251Z,50
2017-05-10T04:45:01.718Z,50
2017-05-10T04:45:27.196Z,50
2017-05-10T04:45:52.688Z,50
2017-05-10T04:46:18.167Z,50
2017-05-10T04:46:43.616Z,50
2017-05-10T04:47:09.098Z,50
2017-05-10T04:47:34.559Z,50
2017-05-10T04:48:00.052Z,55
2017-05-10T04:48:25.507Z,55
2017-05-10T04:48:50.993Z,55
2017-05-10T04:49:16.424Z,55
2017-05-10T04:49:41.900Z,55
2017-05-10T04:50:07.357Z,55
2017-05-10T04:50:32.851Z,55
2017-05-10T04:50:58.314Z,55
2017-05-10T04:51:23.806Z,60
2017-05-10T04:51:49.275Z,60
2017-05-10T04:52:14.745Z,60
2017-05-10T04:52:40.209Z,60
2017-05-10T04:53:05.679Z,60
2017-05-10T04:53:31.151Z,60
2017-05-10T04:53:56.632Z,60
2017-05-10T04:54:22.099Z,60
2017-05-10T04:54:47.539Z,65
2017-05-10T04:55:13.018Z,70
2017-05-10T04:55:38.472Z,70
2017-05-10T04:56:03.967Z,75
2017-05-10T04:56:29.431Z,75
2017-05-10T04:56:54.880Z,75
2017-05-10T04:57:20.347Z,75
2017-05-10T04:57:45.873Z,75
2017-05-10T04:58:11.340Z,75
2017-05-10T04:58:36.816Z,75
2017-05-10T04:59:02.330Z,75
2017-05-10T04:59:27.790Z,75
2017-05-10T04:59:53.280Z,75
2017-05-10T05:00:18.762Z,75
2017-05-10T05:00:44.246Z,75
2017-05-10T05:01:09.729Z,80
2017-05-10T05:01:35.214Z,80
2017-05-10T05:02:00.692Z,80
2017-05-10T05:02:26.192Z,80
2017-05-10T05:02:51.676Z,80
2017-05-10T05:03:17.146Z,80
2017-05-10T05:03:42.637Z,85
2017-05-10T05:04:08.137Z,85
2017-05-10T05:04:33.620Z,85
2017-05-10T05:04:59.082Z,85
2017-05-10T05:05:24.600Z,85
2017-05-10T05:05:50.073Z,90
2017-05-10T05:06:15.550Z,90
2017-05-10T05:06:41.025Z,90
2017-05-10T05:07:06.500Z,95
2017-05-10T05:07:31.983Z,95
2017-05-10T05:07:57.447Z,95
2017-05-10T05:08:22.923Z,95
2017-05-10T05:08:48.381Z,100
2017-05-10T05:09:13.857Z,100
2017-05-10T05:09:39.356Z,100
2017-05-10T05:10:04.833Z,100
2017-05-10T05:10:30.324Z,105
2017-05-10T05:10:55.810Z,100
2017-05-10T05:11:21.273Z,100
2017-05-10T05:11:46.768Z,100
2017-05-10T05:12:12.245Z,105
2017-05-10T05:12:37.744Z,105
2017-05-10T05:13:03.212Z,105
2017-05-10T05:13:28.723Z,105
2017-05-10T05:13:54.181Z,105
2017-05-10T05:14:19.672Z,105
2017-05-10T05:14:45.153Z,105
2017-05-10T05:15:10.636Z,105
2017-05-10T05:15:36.097Z,105
2017-05-10T05:16:01.597Z,105
2017-05-10T05:16:27.088Z,105
2017-05-10T05:16:52.580Z,105
2017-05-10T05:17:18.052Z,105
2017-05-10T05:17:43.537Z,110
2017-05-10T05:18:08.998Z,110
2017-05-10T05:18:34.466Z,110
2017-05-10T05:18:59.931Z,110
2017-05-10T05:19:25.417Z,110
2017-05-10T05:19:50.876Z,105
2017-05-10T05:20:16.358Z,115
2017-05-10T05:20:41.866Z,115
2017-05-10T05:21:07.340Z,115
2017-05-10T05:21:32.804Z,115
2017-05-10T05:21:58.283Z,115
2017-05-10T05:22:23.752Z,120
2017-05-10T05:22:49.220Z,115
2017-05-10T05:23:14.699Z,115
2017-05-10T05:23:40.183Z,115
2017-05-10T05:24:05.662Z,115
2017-05-10T05:24:31.156Z,110
2017-05-10T05:24:56.651Z,110
2017-05-10T05:25:22.112Z,110
2017-05-10T05:25:47.611Z,110
2017-05-10T05:26:13.112Z,110
2017-05-10T05:26:38.565Z,105
2017-05-10T05:27:04.035Z,120
2017-05-10T05:27:29.501Z,125
2017-05-10T05:27:54.998Z,125
2017-05-10T05:28:20.480Z,125
2017-05-10T05:28:45.972Z,125
2017-05-10T05:29:11.450Z,125
2017-05-10T05:29:36.912Z,125
2017-05-10T05:30:02.366Z,125
2017-05-10T05:30:27.867Z,125
2017-05-10T05:30:53.355Z,125
2017-05-10T05:31:18.852Z,125
2017-05-10T05:31:44.331Z,125
2017-05-10T05:32:09.816Z,125
2017-05-10T05:32:35.277Z,130
2017-05-10T05:33:00.750Z,130
2017-05-10T05:33:26.223Z,130
2017-05-10T05:33:51.706Z,130
2017-05-10T05:34:17.202Z,130
2017-05-10T05:34:42.637Z,130
2017-05-10T05:35:08.133Z,125
2017-05-10T05:35:33.635Z,125
2017-05-10T05:35:59.121Z,125
2017-05-10T05:36:24.653Z,130
2017-05-10T05:36:50.127Z,135
2017-05-10T05:37:15.612Z,135
2017-05-10T05:37:41.049Z,135
2017-05-10T05:38:06.538Z,135
2017-05-10T05:38:31.981Z,130
2017-05-10T05:38:57.450Z,135
2017-05-10T05:39:22.908Z,140
2017-05-10T05:39:48.384Z,140
2017-05-10T05:40:13.862Z,155
2017-05-10T05:40:39.317Z,165
2017-05-10T05:41:04.805Z,180
2017-05-10T05:41:30.270Z,195
2017-05-10T05:41:55.754Z,200
2017-05-10T05:42:21.207Z,195
2017-05-10T05:42:46.711Z,185
2017-05-10T05:43:12.179Z,175
2017-05-10T05:43:37.668Z,180
2017-05-10T05:44:03.146Z,175
2017-05-10T05:44:28.608Z,170
2017-05-10T05:44:54.067Z,170
2017-05-10T05:45:19.543Z,165
2017-05-10T05:45:45.016Z,165
2017-05-10T05:46:10.487Z,165
2017-05-10T05:46:36.006Z,165
2017-05-10T05:47:01.462Z,160
2017-05-10T05:47:26.957Z,155
2017-05-10T05:47:52.429Z,155
2017-05-10T05:48:17.910Z,155
2017-05-10T05:48:43.379Z,155
2017-05-10T05:49:08.872Z,170
2017-05-10T05:49:34.373Z,155
2017-05-10T05:49:59.857Z,170
2017-05-10T05:50:25.343Z,170
2017-05-10T05:50:50.800Z,175
2017-05-10T05:51:16.291Z,170
2017-05-10T05:51:41.765Z,160
2017-05-10T05:52:07.244Z,160
2017-05-10T05:52:32.710Z,155
2017-05-10T05:52:58.187Z,135
2017-05-10T05:53:23.673Z,130
2017-05-10T05:53:49.134Z,135
2017-05-10T05:54:14.614Z,155
2017-05-10T05:54:40.106Z,180
2017-05-10T05:55:05.584Z,180
2017-05-10T05:55:31.062Z,175
2017-05-10T05:55:56.536Z,175
2017-05-10T05:56:22.023Z,175
2017-05-10T05:56:47.476Z,170
2017-05-10T05:57:12.948Z,170
2017-05-10T05:57:38.407Z,170
2017-05-10T05:58:03.872Z,170
2017-05-10T05:58:29.349Z,165
2017-05-10T05:58:54.864Z,165
2017-05-10T05:59:20.375Z,160
2017-05-10T05:59:45.910Z,160
2017-05-10T06:00:11.417Z,160
2017-05-10T06:00:36.909Z,165
2017-05-10T06:01:02.379Z,165
2017-05-10T06:01:27.841Z,165
2017-05-10T06:01:53.272Z,170
2017-05-10T06:02:18.726Z,175
2017-05-10T06:02:44.200Z,180
2017-05-10T06:03:09.677Z,180
2017-05-10T06:03:35.137Z,180
2017-05-10T06:04:00.623Z,180
2017-05-10T06:04:26.100Z,180
2017-05-10T06:04:51.572Z,180
2017-05-10T06:05:17.047Z,180
2017-05-10T06:05:42.542Z,175
2017-05-10T06:06:08.012Z,180
2017-05-10T06:06:33.477Z,175
2017-05-10T06:06:58.970Z,170
2017-05-10T06:07:24.435Z,170
2017-05-10T06:07:49.899Z,175
2017-05-10T06:08:15.385Z,170
2017-05-10T06:08:40.851Z,170
2017-05-10T06:09:06.310Z,170
2017-05-10T06:09:31.780Z,170
2017-05-10T06:09:57.232Z,175
2017-05-10T06:10:22.709Z,180
2017-05-10T06:10:48.176Z,180
2017-05-10T06:11:13.667Z,180
2017-05-10T06:11:39.148Z,185
2017-05-10T06:12:04.616Z,180
2017-05-10T06:12:30.102Z,180
2017-05-10T06:12:55.613Z,180
2017-05-10T06:13:21.092Z,180
2017-05-10T06:13:46.584Z,180
2017-05-10T06:14:12.036Z,185
2017-05-10T06:14:37.529Z,185
2017-05-10T06:15:03.009Z,185
2017-05-10T06:15:28.500Z,185
2017-05-10T06:15:53.956Z,185
2017-05-10T06:16:19.462Z,185
2017-05-10T06:16:44.948Z,180
2017-05-10T06:17:10.466Z,180
2017-05-10T06:17:35.930Z,185
2017-05-10T06:18:01.425Z,180
2017-05-10T06:18:26.905Z,180
2017-05-10T06:18:52.381Z,180
2017-05-10T06:19:17.885Z,180
2017-05-10T06:19:43.372Z,180
2017-05-10T06:20:08.813Z,180
2017-05-10T06:20:34.292Z,180
2017-05-10T06:20:59.784Z,180
2017-05-10T06:21:25.262Z,180
2017-05-10T06:21:50.753Z,180
2017-05-10T06:22:16.223Z,180
2017-05-10T06:22:41.695Z,180
2017-05-10T06:23:07.166Z,180
2017-05-10T06:23:32.619Z,180
2017-05-10T06:23:58.109Z,180
2017-05-10T06:24:23.596Z,185
2017-05-10T06:24:49.095Z,185
2017-05-10T06:25:14.567Z,185
2017-05-10T06:25:40.016Z,190
2017-05-10T06:26:05.503Z,195
2017-05-10T06:26:30.955Z,200
2017-05-10T06:26:56.445Z,205
2017-05-10T06:27:21.938Z,205
2017-05-10T06:27:47.448Z,205
2017-05-10T06:28:12.936Z,200
2017-05-10T06:28:38.414Z,200
2017-05-10T06:29:03.918Z,195
2017-05-10T06:29:29.394Z,195
2017-05-10T06:29:54.836Z,190
2017-05-10T06:30:20.333Z,190
2017-05-10T06:30:45.830Z,190
2017-05-10T06:31:11.316Z,185
2017-05-10T06:31:36.801Z,185
2017-05-10T06:32:02.288Z,185
2017-05-10T06:32:27.774Z,185
2017-05-10T06:32:53.261Z,185
2017-05-10T06:33:18.731Z,190
2017-05-10T06:33:44.208Z,195
2017-05-10T06:34:09.664Z,200
2017-05-10T06:34:35.143Z,200
2017-05-10T06:35:00.641Z,200
2017-05-10T06:35:26.115Z,205
2017-05-10T06:35:51.595Z,195
2017-05-10T06:36:17.100Z,195
2017-05-10T06:36:42.559Z,195
2017-05-10T06:37:08.037Z,195
2017-05-10T06:37:33.510Z,195
2017-05-10T06:37:58.980Z,200
2017-05-10T06:38:24.452Z,200
2017-05-10T06:38:49.918Z,205
2017-05-10T06:39:15.373Z,200
2017-05-10T06:39:40.825Z,200
2017-05-10T06:40:06.308Z,205
2017-05-10T06:40:31.792Z,195
2017-05-10T06:40:57.242Z,195
2017-05-10T06:41:22.747Z,210
2017-05-10T06:41:48.204Z,210
2017-05-10T06:42:13.703Z,210
2017-05-10T06:42:39.194Z,210
2017-05-10T06:43:04.677Z,205
2017-05-10T06:43:30.163Z,210
2017-05-10T06:43:55.630Z,210
2017-05-10T06:44:21.109Z,210
2017-05-10T06:44:46.581Z,205
2017-05-10T06:45:12.046Z,205
2017-05-10T06:45:37.512Z,200
2017-05-10T06:46:02.970Z,200
2017-05-10T06:46:28.446Z,200
2017-05-10T06:46:53.948Z,200
2017-05-10T06:47:19.387Z,200
2017-05-10T06:47:44.880Z,200
2017-05-10T06:48:10.371Z,195
2017-05-10T06:48:35.852Z,195
2017-05-10T06:49:01.331Z,195
2017-05-10T06:49:26.826Z,195
2017-05-10T06:49:52.297Z,195
2017-05-10T06:50:17.766Z,195
2017-05-10T06:50:43.257Z,195
2017-05-10T06:51:08.740Z,195
2017-05-10T06:51:34.252Z,195
2017-05-10T06:51:59.735Z,200
2017-05-10T06:52:25.198Z,205
2017-05-10T06:52:50.689Z,210
2017-05-10T06:53:16.162Z,210
2017-05-10T06:53:41.661Z,210
2017-05-10T06:54:07.128Z,210
2017-05-10T06:54:32.605Z,205
2017-05-10T06:54:58.103Z,200
2017-05-10T06:55:23.575Z,205
2017-05-10T06:55:49.048Z,205
2017-05-10T06:56:14.500Z,205
2017-05-10T06:56:39.982Z,205
2017-05-10T06:57:05.504Z,205
2017-05-10T06:57:30.965Z,205
2017-05-10T06:57:56.445Z,205
2017-05-10T06:58:21.969Z,205
2017-05-10T06:58:47.440Z,210
2017-05-10T06:59:12.940Z,210
2017-05-10T06:59:38.410Z,210
2017-05-10T07:00:03.868Z,210
2017-05-10T07:00:29.333Z,205
2017-05-10T07:00:54.838Z,205
2017-05-10T07:01:20.357Z,200
2017-05-10T07:01:45.843Z,200
2017-05-10T07:02:11.338Z,205
2017-05-10T07:02:36.822Z,205
2017-05-10T07:03:02.315Z,210
2017-05-10T07:03:27.795Z,210
2017-05-10T07:03:53.258Z,210
2017-05-10T07:04:18.737Z,210
2017-05-10T07:04:44.214Z,220
2017-05-10T07:05:09.675Z,215
2017-05-10T07:05:35.149Z,220
2017-05-10T07:06:00.633Z,220
2017-05-10T07:06:26.120Z,220
2017-05-10T07:06:51.608Z,215
2017-05-10T07:07:17.100Z,210
2017-05-10T07:07:42.606Z,205
2017-05-10T07:08:08.083Z,210
2017-05-10T07:08:33.562Z,210
2017-05-10T07:08:59.033Z,210
2017-05-10T07:09:24.494Z,210
2017-05-10T07:09:49.982Z,205
2017-05-10T07:10:15.459Z,200
2017-05-10T07:10:40.937Z,195
2017-05-10T07:11:06.420Z,195
2017-05-10T07:11:31.912Z,190
2017-05-10T07:11:57.371Z,190
2017-05-10T07:12:22.861Z,195
2017-05-10T07:12:48.345Z,195
2017-05-10T07:13:13.792Z,200
2017-05-10T07:13:39.259Z,200
2017-05-10T07:14:04.746Z,200
2017-05-10T07:14:30.224Z,200
2017-05-10T07:14:55.698Z,200
2017-05-10T07:15:21.188Z,200
2017-05-10T07:15:46.667Z,195
2017-05-10T07:16:12.138Z,195
2017-05-10T07:16:37.607Z,195
2017-05-10T07:17:03.081Z,195
2017-05-10T07:17:28.559Z,195
2017-05-10T07:17:54.027Z,195
2017-05-10T07:18:19.502Z,195
2017-05-10T07:18:45.017Z,195
2017-05-10T07:19:10.461Z,200
2017-05-10T07:19:35.935Z,200
2017-05-10T07:20:01.441Z,190
2017-05-10T07:20:26.907Z,190
2017-05-10T07:20:52.394Z,190
2017-05-10T07:21:17.882Z,195
2017-05-10T07:21:43.379Z,190
2017-05-10T07:22:08.846Z,195
2017-05-10T07:22:34.324Z,190
2017-05-10T07:22:59.791Z,190
2017-05-10T07:23:25.289Z,190
2017-05-10T07:23:50.754Z,190
2017-05-10T07:24:16.235Z,190
2017-05-10T07:24:41.720Z,190
2017-05-10T07:25:07.214Z,190
2017-05-10T07:25:32.694Z,190
2017-05-10T07:25:58.161Z,195
2017-05-10T07:26:23.619Z,195
2017-05-10T07:26:49.088Z,195
2017-05-10T07:27:14.544Z,195
2017-05-10T07:27:40.013Z,195
2017-05-10T07:28:05.502Z,195
2017-05-10T07:28:30.975Z,195
2017-05-10T07:28:56.430Z,200
2017-05-10T07:29:21.909Z,200
2017-05-10T07:29:47.392Z,200
2017-05-10T07:30:12.882Z,200
2017-05-10T07:30:38.386Z,200
2017-05-10T07:31:03.841Z,200
2017-05-10T07:31:29.331Z,200
2017-05-10T07:31:54.814Z,205
2017-05-10T07:32:20.270Z,210
2017-05-10T07:32:45.761Z,220
2017-05-10T07:33:11.235Z,225
2017-05-10T07:33:36.732Z,230
2017-05-10T07:34:02.192Z,230
2017-05-10T07:34:27.674Z,230
2017-05-10T07:34:53.155Z,230
2017-05-10T07:35:18.643Z,225
2017-05-10T07:35:44.107Z,220
2017-05-10T07:36:09.600Z,215
2017-05-10T07:36:35.062Z,210
2017-05-10T07:37:00.564Z,210
2017-05-10T07:37:26.053Z,210
2017-05-10T07:37:51.551Z,210
2017-05-10T07:38:17.044Z,215
2017-05-10T07:38:42.532Z,210
2017-05-10T07:39:08.011Z,210
2017-05-10T07:39:33.501Z,210
2017-05-10T07:39:58.990Z,210
2017-05-10T07:40:24.459Z,210
2017-05-10T07:40:49.929Z,210
2017-05-10T07:41:15.420Z,215
2017-05-10T07:41:40.914Z,215
2017-05-10T07:42:06.392Z,220
2017-05-10T07:42:31.868Z,225
2017-05-10T07:42:57.365Z,235
2017-05-10T07:43:22.849Z,230
2017-05-10T07:43:48.297Z,230
2017-05-10T07:44:13.784Z,230
2017-05-10T07:44:39.268Z,230
2017-05-10T07:45:04.747Z,235
2017-05-10T07:45:30.220Z,235
2017-05-10T07:45:55.685Z,245
2017-05-10T07:46:21.196Z,285
2017-05-10T07:46:46.647Z,435
2017-05-10T07:47:12.132Z,605
2017-05-10T07:47:37.605Z,775
2017-05-10T07:48:03.084Z,930
2017-05-10T07:48:28.575Z,1045
2017-05-10T07:48:54.071Z,1080
2017-05-10T07:49:19.563Z,995
2017-05-10T07:49:45.057Z,875
2017-05-10T07:50:10.502Z,710
2017-05-10T07:50:35.984Z,535
2017-05-10T07:51:01.451Z,375
2017-05-10T07:51:26.922Z,275
2017-05-10T07:51:52.415Z,235
2017-05-10T07:52:17.884Z,225
2017-05-10T07:52:43.382Z,220
2017-05-10T07:53:08.834Z,210
2017-05-10T07:53:34.287Z,210
2017-05-10T07:53:59.790Z,210
2017-05-10T07:54:25.263Z,210
2017-05-10T07:54:50.752Z,210
2017-05-10T07:55:16.226Z,205
2017-05-10T07:55:41.708Z,200
2017-05-10T07:56:07.182Z,200
2017-05-10T07:56:32.693Z,200
2017-05-10T07:56:58.200Z,200
2017-05-10T07:57:23.706Z,195
2017-05-10T07:57:49.183Z,200
2017-05-10T07:58:14.691Z,200
2017-05-10T07:58:40.144Z,200
2017-05-10T07:59:05.633Z,195
2017-05-10T07:59:31.114Z,195
2017-05-10T07:59:56.577Z,200
2017-05-10T08:00:22.059Z,200
2017-05-10T08:00:47.519Z,200
2017-05-10T08:01:12.989Z,200
2017-05-10T08:01:38.483Z,200
2017-05-10T08:02:03.962Z,195
2017-05-10T08:02:29.434Z,200
2017-05-10T08:02:54.895Z,195
2017-05-10T08:03:20.364Z,195
2017-05-10T08:03:45.838Z,195
2017-05-10T08:04:11.315Z,200
2017-05-10T08:04:36.815Z,195
2017-05-10T08:05:02.317Z,195
2017-05-10T08:05:27.788Z,195
2017-05-10T08:05:53.268Z,195
2017-05-10T08:06:18.778Z,195
2017-05-10T08:06:44.269Z,195
2017-05-10T08:07:09.739Z,200
2017-05-10T08:07:35.253Z,200
2017-05-10T08:08:00.755Z,195
2017-05-10T08:08:26.245Z,195
2017-05-10T08:08:51.727Z,195
2017-05-10T08:09:17.208Z,195
2017-05-10T08:09:42.683Z,195
2017-05-10T08:10:08.184Z,200
2017-05-10T08:10:33.701Z,195
2017-05-10T08:10:59.167Z,195
2017-05-10T08:11:24.657Z,195
2017-05-10T08:11:50.131Z,195
2017-05-10T08:12:15.607Z,195
2017-05-10T08:12:41.096Z,195
2017-05-10T08:13:06.563Z,195
2017-05-10T08:13:32.040Z,200
2017-05-10T08:13:57.521Z,200
2017-05-10T08:14:23.017Z,205
2017-05-10T08:14:48.475Z,205
2017-05-10T08:15:13.938Z,205
2017-05-10T08:15:39.404Z,210
2017-05-10T08:16:04.890Z,215
2017-05-10T08:16:30.351Z,220
2017-05-10T08:16:55.826Z,230
2017-05-10T08:17:21.326Z,235
2017-05-10T08:17:46.818Z,240
2017-05-10T08:18:12.302Z,240
2017-05-10T08:18:37.747Z,240
2017-05-10T08:19:03.199Z,235
2017-05-10T08:19:28.666Z,235
2017-05-10T08:19:54.136Z,230
2017-05-10T08:20:19.627Z,230
2017-05-10T08:20:45.098Z,235
2017-05-10T08:21:10.567Z,240
2017-05-10T08:21:36.055Z,255
2017-05-10T08:22:01.520Z,265
2017-05-10T08:22:26.996Z,265
2017-05-10T08:22:52.475Z,265
2017-05-10T08:23:17.955Z,260
2017-05-10T08:23:43.437Z,260
2017-05-10T08:24:08.939Z,250
2017-05-10T08:24:34.419Z,255
2017-05-10T08:24:59.921Z,260
2017-05-10T08:25:25.404Z,270
2017-05-10T08:25:50.903Z,275
2017-05-10T08:26:16.405Z,285
2017-05-10T08:26:41.863Z,290
2017-05-10T08:27:07.332Z,290
2017-05-10T08:27:32.805Z,285
2017-05-10T08:27:58.265Z,280
2017-05-10T08:28:23.759Z,245
2017-05-10T08:28:49.229Z,240
2017-05-10T08:29:14.711Z,280
2017-05-10T08:29:40.197Z,255
2017-05-10T08:30:05.675Z,285
2017-05-10T08:30:31.136Z,300
2017-05-10T08:30:56.607Z,255
2017-05-10T08:31:22.087Z,250
2017-05-10T08:31:47.584Z,255
2017-05-10T08:32:13.063Z,285
2017-05-10T08:32:38.561Z,315
2017-05-10T08:33:04.039Z,310
2017-05-10T08:33:29.514Z,315
2017-05-10T08:33:54.988Z,310
2017-05-10T08:34:20.458Z,295
2017-05-10T08:34:45.925Z,285
2017-05-10T08:35:11.388Z,275
2017-05-10T08:35:36.855Z,270
2017-05-10T08:36:02.349Z,260
2017-05-10T08:36:27.824Z,265
2017-05-10T08:36:53.309Z,260
2017-05-10T08:37:18.795Z,245
2017-05-10T08:37:44.285Z,230
2017-05-10T08:38:09.791Z,235
2017-05-10T08:38:35.274Z,245
2017-05-10T08:39:00.740Z,240
2017-05-10T08:39:26.223Z,215
2017-05-10T08:39:51.705Z,215
2017-05-10T08:40:17.167Z,240
2017-05-10T08:40:42.641Z,250
2017-05-10T08:41:08.097Z,245
2017-05-10T08:41:33.610Z,250
2017-05-10T08:41:59.093Z,255
2017-05-10T08:42:24.562Z,260
2017-05-10T08:42:50.044Z,270
2017-05-10T08:43:15.497Z,275
2017-05-10T08:43:40.977Z,265
2017-05-10T08:44:06.463Z,260
2017-05-10T08:44:31.930Z,255
2017-05-10T08:44:57.424Z,255
2017-05-10T08:45:22.891Z,260
2017-05-10T08:45:48.379Z,270
2017-05-10T08:46:13.860Z,275
2017-05-10T08:46:39.368Z,270
2017-05-10T08:47:04.864Z,265
2017-05-10T08:47:30.356Z,265
2017-05-10T08:47:55.835Z,260
2017-05-10T08:48:21.324Z,265
2017-05-10T08:48:46.818Z,250
2017-05-10T08:49:12.309Z,250
2017-05-10T08:49:37.767Z,250
2017-05-10T08:50:03.288Z,245
2017-05-10T08:50:28.757Z,245
2017-05-10T08:50:54.206Z,240
2017-05-10T08:51:19.706Z,245
2017-05-10T08:51:45.213Z,245
2017-05-10T08:52:10.673Z,235
2017-05-10T08:52:36.146Z,235
2017-05-10T08:53:01.619Z,230
2017-05-10T08:53:27.108Z,220
2017-05-10T08:53:52.569Z,230
2017-05-10T08:54:18.060Z,230
2017-05-10T08:54:43.528Z,230
2017-05-10T08:55:09.008Z,220
2017-05-10T08:55:34.473Z,210
2017-05-10T08:55:59.981Z,220
2017-05-10T08:56:25.476Z,215
2017-05-10T08:56:50.976Z,210
2017-05-10T08:57:16.436Z,215
2017-05-10T08:57:41.919Z,215
2017-05-10T08:58:07.397Z,205
2017-05-10T08:58:32.864Z,165
2017-05-10T08:58:58.332Z,160
2017-05-10T08:59:23.797Z,170
2017-05-10T08:59:49.280Z,175
2017-05-10T09:00:14.743Z,180
2017-05-10T09:00:40.238Z,185
2017-05-10T09:01:05.747Z,185
2017-05-10T09:01:31.219Z,190
2017-05-10T09:01:56.708Z,240
2017-05-10T09:02:22.171Z,240
2017-05-10T09:02:47.749Z,240
2017-05-10T09:03:13.257Z,230
2017-05-10T09:03:38.728Z,190
2017-05-10T09:04:04.199Z,190
2017-05-10T09:04:29.673Z,195
2017-05-10T09:04:55.136Z,225
2017-05-10T09:05:20.614Z,225
2017-05-10T09:05:46.084Z,285
2017-05-10T09:06:11.580Z,300
2017-05-10T09:06:37.055Z,280
2017-05-10T09:07:02.528Z,310
2017-05-10T09:07:28.022Z,315
2017-05-10T09:07:53.523Z,300
2017-05-10T09:08:19.003Z,275
2017-05-10T09:08:44.493Z,290
2017-05-10T09:09:09.982Z,275
2017-05-10T09:09:35.462Z,270
2017-05-10T09:10:00.934Z,270
2017-05-10T09:10:26.415Z,275
2017-05-10T09:10:51.871Z,280
2017-05-10T09:11:17.388Z,290
2017-05-10T09:11:42.856Z,295
2017-05-10T09:12:08.352Z,300
2017-05-10T09:12:33.828Z,325
2017-05-10T09:12:59.314Z,345
2017-05-10T09:13:24.836Z,345
2017-05-10T09:13:50.278Z,305
2017-05-10T09:14:15.779Z,340
2017-05-10T09:14:41.279Z,335
2017-05-10T09:15:06.771Z,305
2017-05-10T09:15:32.256Z,305
2017-05-10T09:15:57.745Z,295
2017-05-10T09:16:23.212Z,280
2017-05-10T09:16:48.716Z,260
2017-05-10T09:17:14.178Z,250
2017-05-10T09:17:39.654Z,210
2017-05-10T09:18:05.129Z,235
2017-05-10T09:18:30.609Z,240
2017-05-10T09:18:56.102Z,235
2017-05-10T09:19:21.582Z,215
2017-05-10T09:19:47.086Z,220
2017-05-10T09:20:12.542Z,230
2017-05-10T09:20:38.007Z,205
2017-05-10T09:21:03.485Z,210
2017-05-10T09:21:28.975Z,255
2017-05-10T09:21:54.459Z,260
2017-05-10T09:22:19.976Z,260
2017-05-10T09:22:45.476Z,255
2017-05-10T09:23:10.946Z,255
2017-05-10T09:23:36.435Z,250
2017-05-10T09:24:01.921Z,245
2017-05-10T09:24:27.411Z,250
2017-05-10T09:24:52.883Z,245
2017-05-10T09:25:18.360Z,250
2017-05-10T09:25:43.844Z,215
2017-05-10T09:26:09.361Z,205
2017-05-10T09:26:34.820Z,205
2017-05-10T09:27:00.296Z,210
2017-05-10T09:27:25.788Z,215
2017-05-10T09:27:51.276Z,215
2017-05-10T09:28:16.792Z,215
2017-05-10T09:28:42.276Z,210
2017-05-10T09:29:07.751Z,200
2017-05-10T09:29:33.207Z,195
2017-05-10T09:29:58.703Z,185
2017-05-10T09:30:24.170Z,180
2017-05-10T09:30:49.654Z,175
2017-05-10T09:31:15.133Z,170
2017-05-10T09:31:40.626Z,175
2017-05-10T09:32:06.122Z,190
2017-05-10T09:32:31.604Z,205
2017-05-10T09:32:57.108Z,225
2017-05-10T09:33:22.586Z,240
2017-05-10T09:33:48.060Z,285
2017-05-10T09:34:13.543Z,280
2017-05-10T09:34:39.020Z,290
2017-05-10T09:35:04.497Z,285
2017-05-10T09:35:29.976Z,280
2017-05-10T09:35:55.457Z,255
2017-05-10T09:36:20.970Z,250
2017-05-10T09:36:46.441Z,215
2017-05-10T09:37:11.931Z,195
2017-05-10T09:37:37.404Z,205
2017-05-10T09:38:02.909Z,195
2017-05-10T09:38:28.370Z,215
2017-05-10T09:38:53.833Z,215
2017-05-10T09:39:19.290Z,210
2017-05-10T09:39:44.767Z,210
2017-05-10T09:40:10.236Z,205
2017-05-10T09:40:35.709Z,190
2017-05-10T09:41:01.146Z,205
2017-05-10T09:41:26.604Z,225
2017-05-10T09:41:52.091Z,235
2017-05-10T09:42:17.542Z,250
2017-05-10T09:42:42.998Z,230
2017-05-10T09:43:08.454Z,260
2017-05-10T09:43:33.902Z,240
2017-05-10T09:43:59.393Z,240
2017-05-10T09:44:24.849Z,230
2017-05-10T09:44:50.316Z,230
2017-05-10T09:45:15.775Z,220
2017-05-10T09:45:41.236Z,230
2017-05-10T09:46:06.691Z,225
2017-05-10T09:46:32.170Z,220
2017-05-10T09:46:57.658Z,225
2017-05-10T09:47:23.096Z,225
2017-05-10T09:47:48.576Z,250
2017-05-10T09:48:14.063Z,265
2017-05-10T09:48:39.534Z,285
2017-05-10T09:49:04.996Z,325
2017-05-10T09:49:30.474Z,340
2017-05-10T09:49:55.900Z,340
2017-05-10T09:50:21.366Z,340
2017-05-10T09:50:46.842Z,340
2017-05-10T09:51:12.295Z,350
2017-05-10T09:51:37.764Z,350
2017-05-10T09:52:03.247Z,345
2017-05-10T09:52:28.717Z,340
2017-05-10T09:52:54.223Z,340
2017-05-10T09:53:19.656Z,340
2017-05-10T09:53:45.128Z,335
2017-05-10T09:54:10.621Z,340
2017-05-10T09:54:36.137Z,330
2017-05-10T09:55:01.628Z,330
2017-05-10T09:55:27.104Z,335
2017-05-10T09:55:52.576Z,325
2017-05-10T09:56:18.093Z,320
2017-05-10T09:56:43.521Z,310
2017-05-10T09:57:09.012Z,300
2017-05-10T09:57:34.442Z,280
2017-05-10T09:57:59.944Z,255
2017-05-10T09:58:25.442Z,255
2017-05-10T09:58:50.914Z,255
2017-05-10T09:59:16.388Z,225
2017-05-10T09:59:41.827Z,225
2017-05-10T10:00:07.294Z,220
2017-05-10T10:00:32.757Z,220
2017-05-10T10:00:58.219Z,215
2017-05-10T10:01:23.723Z,210
2017-05-10T10:01:49.168Z,220
2017-05-10T10:02:14.659Z,230
2017-05-10T10:02:40.108Z,235
2017-05-10T10:03:05.548Z,245
2017-05-10T10:03:31.037Z,245
2017-05-10T10:03:56.519Z,245
2017-05-10T10:04:21.969Z,250
2017-05-10T10:04:47.454Z,245
2017-05-10T10:05:12.968Z,245
2017-05-10T10:05:38.393Z,245
2017-05-10T10:06:03.880Z,245
2017-05-10T10:06:29.328Z,245
2017-05-10T10:06:54.837Z,245
2017-05-10T10:07:20.299Z,255
2017-05-10T10:07:45.751Z,245
2017-05-10T10:08:11.256Z,240
2017-05-10T10:08:36.781Z,235
2017-05-10T10:09:02.203Z,240
2017-05-10T10:09:27.648Z,240
2017-05-10T10:09:53.158Z,260
2017-05-10T10:10:18.644Z,265
2017-05-10T10:10:44.081Z,250
2017-05-10T10:11:09.540Z,255
2017-05-10T10:11:35.004Z,240
2017-05-10T10:12:00.446Z,240
2017-05-10T10:12:25.939Z,240
2017-05-10T10:12:51.395Z,235
2017-05-10T10:13:16.876Z,240
2017-05-10T10:13:42.323Z,245
2017-05-10T10:14:07.816Z,260
2017-05-10T10:14:33.279Z,275
2017-05-10T10:14:58.765Z,290
2017-05-10T10:15:24.219Z,320
2017-05-10T10:15:49.679Z,295
2017-05-10T10:16:15.211Z,290
2017-05-10T10:16:40.654Z,280
2017-05-10T10:17:06.155Z,275
2017-05-10T10:17:31.599Z,260
2017-05-10T10:17:57.091Z,250
2017-05-10T10:18:22.546Z,240
2017-05-10T10:18:48.004Z,240
2017-05-10T10:19:13.501Z,240
2017-05-10T10:19:38.979Z,245
2017-05-10T10:20:04.477Z,245
2017-05-10T10:20:29.908Z,260
2017-05-10T10:20:55.359Z,270
2017-05-10T10:21:20.831Z,285
2017-05-10T10:21:46.328Z,300
2017-05-10T10:22:11.763Z,300
2017-05-10T10:22:37.241Z,290
2017-05-10T10:23:02.733Z,280
2017-05-10T10:23:28.230Z,280
2017-05-10T10:23:53.672Z,270
2017-05-10T10:24:19.146Z,270
2017-05-10T10:24:44.611Z,280
2017-05-10T10:25:10.121Z,285
2017-05-10T10:25:35.577Z,285
2017-05-10T10:26:01.034Z,285
2017-05-10T10:26:26.530Z,285
2017-05-10T10:26:51.995Z,285
2017-05-10T10:27:17.438Z,285
2017-05-10T10:27:42.932Z,315
2017-05-10T10:28:08.438Z,325
2017-05-10T10:28:33.922Z,330
2017-05-10T10:28:59.423Z,340
2017-05-10T10:29:24.964Z,345
2017-05-10T10:29:50.441Z,345
2017-05-10T10:30:15.917Z,345
2017-05-10T10:30:41.405Z,340
2017-05-10T10:31:06.875Z,335
2017-05-10T10:31:32.338Z,335
2017-05-10T10:31:57.795Z,330
2017-05-10T10:32:23.303Z,325
2017-05-10T10:32:48.752Z,320
2017-05-10T10:33:14.213Z,315
2017-05-10T10:33:39.685Z,305
2017-05-10T10:34:05.139Z,305
2017-05-10T10:34:30.604Z,300
2017-05-10T10:34:56.092Z,295
2017-05-10T10:35:21.562Z,285